createdAt,value
2018-06-08T00:01:16.880Z,16.92
2018-06-08T00:03:44.350Z,17.01
2018-06-08T00:06:11.799Z,16.87
2018-06-08T00:08:39.439Z,16.98
2018-06-08T00:11:06.893Z,16.97
2018-06-08T00:13:34.999Z,16.95
2018-06-08T00:16:02.523Z,16.97
2018-06-08T00:18:30.011Z,16.90
2018-06-08T00:20:58.051Z,16.90
2018-06-08T00:23:25.456Z,16.84
2018-06-08T00:25:52.952Z,16.88
2018-06-08T00:28:20.362Z,16.76
2018-06-08T00:30:47.996Z,16.76
2018-06-08T00:33:15.469Z,16.63
2018-06-08T00:35:42.853Z,16.66
2018-06-08T00:40:44.146Z,16.61
2018-06-08T00:43:11.514Z,16.67
2018-06-08T00:45:39.134Z,16.74
2018-06-08T00:48:06.633Z,16.76
2018-06-08T00:50:34.061Z,16.82
2018-06-08T00:53:01.499Z,16.83
2018-06-08T00:55:28.979Z,16.82
2018-06-08T00:57:56.366Z,16.84
2018-06-08T01:00:23.801Z,17.00
2018-06-08T01:02:51.245Z,16.99
2018-06-08T01:05:20.005Z,16.89
2018-06-08T01:07:47.446Z,16.86
2018-06-08T01:10:15.523Z,16.90
2018-06-08T01:12:42.927Z,16.99
2018-06-08T01:15:10.439Z,16.97
2018-06-08T01:17:37.826Z,16.91
2018-06-08T01:20:05.338Z,17.01
2018-06-08T01:22:33.021Z,16.99
2018-06-08T01:25:00.529Z,16.89
2018-06-08T01:27:27.956Z,16.87
2018-06-08T01:29:55.431Z,16.76
2018-06-08T01:32:22.867Z,16.86
2018-06-08T01:34:50.311Z,16.79
2018-06-08T01:37:17.764Z,16.89
2018-06-08T01:39:45.169Z,16.90
2018-06-08T01:42:13.191Z,16.82
2018-06-08T01:44:40.751Z,16.76
2018-06-08T01:47:08.150Z,16.67
2018-06-08T01:49:35.528Z,16.74
2018-06-08T01:52:02.925Z,16.84
2018-06-08T01:54:30.341Z,16.82
2018-06-08T01:56:57.736Z,16.81
2018-06-08T01:59:25.198Z,16.73
2018-06-08T02:01:52.685Z,16.70
2018-06-08T02:04:20.198Z,16.71
2018-06-08T02:06:48.229Z,16.71
2018-06-08T02:09:15.640Z,16.70
2018-06-08T02:11:43.133Z,16.75
2018-06-08T02:14:10.546Z,16.72
2018-06-08T02:16:38.038Z,16.75
2018-06-08T02:19:05.518Z,16.77
2018-06-08T02:21:33.693Z,16.57
2018-06-08T02:24:01.097Z,16.51
2018-06-08T02:26:28.534Z,16.46
2018-06-08T02:28:55.930Z,16.51
2018-06-08T02:31:23.414Z,16.63
2018-06-08T02:33:50.981Z,16.73
2018-06-08T02:36:18.585Z,16.64
2018-06-08T02:38:46.605Z,16.62
2018-06-08T02:41:14.065Z,16.60
2018-06-08T02:43:42.092Z,16.64
2018-06-08T02:46:09.601Z,16.70
2018-06-08T02:48:37.062Z,16.58
2018-06-08T02:51:04.421Z,16.56
2018-06-08T02:53:31.825Z,16.58
2018-06-08T02:55:59.282Z,16.54
2018-06-08T02:58:26.677Z,16.43
2018-06-08T03:00:54.058Z,16.53
2018-06-08T03:03:21.495Z,16.63
2018-06-08T03:05:48.956Z,16.55
2018-06-08T03:08:16.397Z,16.46
2018-06-08T03:10:44.570Z,16.48
2018-06-08T03:13:12.001Z,16.45
2018-06-08T03:15:39.405Z,16.38
2018-06-08T03:18:06.808Z,16.27
2018-06-08T03:20:34.339Z,16.34
2018-06-08T03:23:01.844Z,16.30
2018-06-08T03:25:29.610Z,16.34
2018-06-08T03:27:57.201Z,16.19
2018-06-08T03:30:24.748Z,16.14
2018-06-08T03:32:52.824Z,16.11
2018-06-08T03:35:20.281Z,16.27
2018-06-08T03:37:47.689Z,16.27
2018-06-08T03:40:15.069Z,16.31
2018-06-08T03:42:42.516Z,16.32
2018-06-08T03:45:09.999Z,16.26
2018-06-08T03:47:37.415Z,16.32
2018-06-08T03:50:04.837Z,16.24
2018-06-08T03:52:32.349Z,16.28
2018-06-08T03:54:59.773Z,16.37
2018-06-08T03:57:27.212Z,16.46
2018-06-08T03:59:54.605Z,16.29
2018-06-08T04:02:22.074Z,16.35
2018-06-08T04:04:49.442Z,16.41
2018-06-08T04:07:16.887Z,16.38
2018-06-08T04:09:44.304Z,16.34
2018-06-08T04:12:12.677Z,16.31
2018-06-08T04:14:40.128Z,16.43
2018-06-08T04:17:07.509Z,16.51
2018-06-08T04:19:34.978Z,16.37
2018-06-08T04:22:02.497Z,16.23
2018-06-08T04:24:29.957Z,16.28
2018-06-08T04:26:57.463Z,16.29
2018-06-08T04:29:25.078Z,16.32
2018-06-08T04:31:52.673Z,16.22
2018-06-08T04:34:20.081Z,16.33
2018-06-08T04:36:47.547Z,16.29
2018-06-08T04:39:15.096Z,16.43
2018-06-08T04:41:42.574Z,16.34
2018-06-08T04:44:10.002Z,16.27
2018-06-08T04:46:37.518Z,16.27
2018-06-08T04:49:05.062Z,16.39
2018-06-08T04:51:32.458Z,16.39
2018-06-08T04:53:59.955Z,16.25
2018-06-08T04:56:27.385Z,16.25
2018-06-08T04:58:54.745Z,16.12
2018-06-08T05:01:22.230Z,16.35
2018-06-08T05:03:49.601Z,16.35
2018-06-08T05:06:17.017Z,16.24
2018-06-08T05:08:44.548Z,16.26
2018-06-08T05:11:11.955Z,16.34
2018-06-08T05:13:39.505Z,16.27
2018-06-08T05:16:07.083Z,16.43
2018-06-08T05:18:34.534Z,16.53
2018-06-08T05:21:01.962Z,16.40
2018-06-08T05:23:29.666Z,16.37
2018-06-08T05:25:57.129Z,16.49
2018-06-08T05:28:24.633Z,16.63
2018-06-08T05:30:52.069Z,16.64
2018-06-08T05:33:19.649Z,16.72
2018-06-08T05:35:47.184Z,16.54
2018-06-08T05:38:14.628Z,16.58
2018-06-08T05:40:42.016Z,16.83
2018-06-08T05:43:09.439Z,16.90
2018-06-08T05:45:37.661Z,16.71
2018-06-08T05:48:05.116Z,16.81
2018-06-08T05:50:32.716Z,16.75
2018-06-08T05:53:00.146Z,17.02
2018-06-08T05:55:27.537Z,17.05
2018-06-08T05:57:54.927Z,17.18
2018-06-08T06:00:22.357Z,17.14
2018-06-08T06:02:49.774Z,17.04
2018-06-08T06:05:17.284Z,16.94
2018-06-08T06:07:44.689Z,17.16
2018-06-08T06:10:12.178Z,17.33
2018-06-08T06:12:39.671Z,17.29
2018-06-08T06:15:07.096Z,17.37
2018-06-08T06:17:34.499Z,17.22
2018-06-08T06:20:01.883Z,17.20
2018-06-08T06:22:29.333Z,17.55
2018-06-08T06:24:56.728Z,17.68
2018-06-08T06:27:24.708Z,17.59
2018-06-08T06:29:52.270Z,17.70
2018-06-08T06:32:19.774Z,17.78
2018-06-08T06:34:47.158Z,17.74
2018-06-08T06:37:14.782Z,17.48
2018-06-08T06:39:42.371Z,17.69
2018-06-08T06:42:09.816Z,17.76
2018-06-08T06:44:37.232Z,17.73
2018-06-08T06:47:05.104Z,17.95
2018-06-08T06:49:33.112Z,18.05
2018-06-08T06:52:00.604Z,18.06
2018-06-08T06:54:28.055Z,17.80
2018-06-08T06:56:55.543Z,18.01
2018-06-08T06:59:23.071Z,18.07
2018-06-08T07:01:50.578Z,18.13
2018-06-08T07:04:18.026Z,18.31
2018-06-08T07:06:45.621Z,18.18
2018-06-08T07:09:13.196Z,18.27
2018-06-08T07:11:40.681Z,18.11
2018-06-08T07:14:08.178Z,18.55
2018-06-08T07:16:35.707Z,18.50
2018-06-08T07:19:03.149Z,18.35
2018-06-08T07:21:30.880Z,18.43
2018-06-08T07:23:58.348Z,18.42
2018-06-08T07:26:27.918Z,18.30
2018-06-08T07:28:55.516Z,18.43
2018-06-08T07:31:22.988Z,18.35
2018-06-08T07:33:50.428Z,18.40
2018-06-08T07:36:17.842Z,18.35
2018-06-08T07:38:45.345Z,18.45
2018-06-08T07:41:12.838Z,18.41
2018-06-08T07:43:41.074Z,18.33
2018-06-08T07:46:09.123Z,18.27
2018-06-08T07:48:36.699Z,18.44
2018-06-08T07:51:04.225Z,18.44
2018-06-08T07:53:31.828Z,18.30
2018-06-08T07:55:59.255Z,18.29
2018-06-08T07:58:26.686Z,18.13
2018-06-08T08:00:54.102Z,18.26
2018-06-08T08:03:21.580Z,18.43
2018-06-08T08:05:49.157Z,18.34
2018-06-08T08:08:16.722Z,18.35
2018-06-08T08:10:44.842Z,18.48
2018-06-08T08:13:12.241Z,18.40
2018-06-08T08:15:39.657Z,18.64
2018-06-08T08:18:07.093Z,18.79
2018-06-08T08:20:34.580Z,18.77
2018-06-08T08:23:01.968Z,18.99
2018-06-08T08:25:29.409Z,18.87
2018-06-08T08:27:56.857Z,19.07
2018-06-08T08:30:24.272Z,19.19
2018-06-08T08:32:51.797Z,19.20
2018-06-08T08:35:19.302Z,19.10
2018-06-08T08:37:46.738Z,19.09
2018-06-08T08:40:14.205Z,19.29
2018-06-08T08:42:41.622Z,19.29
2018-06-08T08:45:09.243Z,19.27
2018-06-08T08:47:36.762Z,19.38
2018-06-08T08:50:11.315Z,19.70
2018-06-08T08:52:38.753Z,19.54
2018-06-08T08:55:06.138Z,19.27
2018-06-08T08:57:33.671Z,19.61
2018-06-08T09:00:01.833Z,19.30
2018-06-08T09:02:29.858Z,19.23
2018-06-08T09:04:57.351Z,19.62
2018-06-08T09:07:24.731Z,19.58
2018-06-08T09:09:52.109Z,19.47
2018-06-08T09:12:19.504Z,19.56
2018-06-08T09:14:46.926Z,19.70
2018-06-08T09:17:14.336Z,19.89
2018-06-08T09:19:42.276Z,19.95
2018-06-08T09:22:09.813Z,19.73
2018-06-08T09:24:37.392Z,19.88
2018-06-08T09:27:04.851Z,19.50
2018-06-08T09:29:32.730Z,19.62
2018-06-08T09:32:00.185Z,19.51
2018-06-08T09:34:27.608Z,19.58
2018-06-08T09:36:55.070Z,19.71
2018-06-08T09:39:22.553Z,19.67
2018-06-08T09:41:50.688Z,19.72
2018-06-08T09:44:18.645Z,19.15
2018-06-08T09:46:46.097Z,19.35
2018-06-08T09:49:13.631Z,19.21
2018-06-08T09:51:41.145Z,19.44
2018-06-08T09:54:08.601Z,19.27
2018-06-08T09:56:36.110Z,19.42
2018-06-08T09:59:03.554Z,19.20
2018-06-08T10:01:31.424Z,19.39
2018-06-08T10:03:58.926Z,19.64
2018-06-08T10:06:26.331Z,19.76
2018-06-08T10:08:54.725Z,19.68
2018-06-08T10:11:22.858Z,19.70
2018-06-08T10:13:50.339Z,19.47
2018-06-08T10:16:18.559Z,19.35
2018-06-08T10:18:46.072Z,19.14
2018-06-08T10:21:13.489Z,19.37
2018-06-08T10:23:41.188Z,19.64
2018-06-08T10:26:09.222Z,19.55
2018-06-08T10:28:37.522Z,19.37
2018-06-08T10:31:05.264Z,19.21
2018-06-08T10:33:32.728Z,19.30
2018-06-08T10:36:00.276Z,19.62
2018-06-08T10:38:27.930Z,19.35
2018-06-08T10:40:55.553Z,19.72
2018-06-08T10:43:22.943Z,19.80
2018-06-08T10:45:50.530Z,20.17
2018-06-08T10:48:17.969Z,19.82
2018-06-08T10:50:45.533Z,20.11
2018-06-08T10:53:12.977Z,20.50
2018-06-08T10:55:40.391Z,20.38
2018-06-08T10:58:08.109Z,20.75
2018-06-08T11:00:35.668Z,20.81
2018-06-08T11:03:03.565Z,21.24
2018-06-08T11:05:31.395Z,20.99
2018-06-08T11:07:58.858Z,20.98
2018-06-08T11:10:26.471Z,20.95
2018-06-08T11:12:53.973Z,20.89
2018-06-08T11:15:21.428Z,20.57
2018-06-08T11:17:48.829Z,20.97
2018-06-08T11:20:16.378Z,21.04
2018-06-08T11:22:44.438Z,20.53
2018-06-08T11:25:11.864Z,20.68
2018-06-08T11:27:39.441Z,20.97
2018-06-08T11:30:06.862Z,21.01
2018-06-08T11:32:34.323Z,21.10
2018-06-08T11:35:01.841Z,20.53
2018-06-08T11:37:29.291Z,20.85
2018-06-08T11:39:56.950Z,20.79
2018-06-08T11:42:24.402Z,20.96
2018-06-08T11:44:51.945Z,20.66
2018-06-08T11:47:19.390Z,20.59
2018-06-08T11:49:46.894Z,20.35
2018-06-08T11:52:14.812Z,20.66
2018-06-08T11:54:42.920Z,20.89
2018-06-08T11:57:10.381Z,20.94
2018-06-08T11:59:37.819Z,20.99
2018-06-08T12:02:05.538Z,20.91
2018-06-08T12:04:33.015Z,20.94
2018-06-08T12:07:00.737Z,20.94
2018-06-08T12:09:28.241Z,21.23
2018-06-08T12:11:55.734Z,21.23
2018-06-08T12:14:23.176Z,21.47
2018-06-08T12:16:50.781Z,21.57
2018-06-08T12:19:18.245Z,21.88
2018-06-08T12:21:45.665Z,21.88
2018-06-08T12:24:14.145Z,21.80
2018-06-08T12:26:41.761Z,22.00
2018-06-08T12:29:09.933Z,22.06
2018-06-08T12:31:37.293Z,22.23
2018-06-08T12:34:04.896Z,23.45
2018-06-08T12:36:32.380Z,23.14
2018-06-08T12:38:59.804Z,23.16
2018-06-08T12:41:27.391Z,23.78
2018-06-08T12:43:55.014Z,24.15
2018-06-08T12:46:22.389Z,24.98
2018-06-08T12:48:49.779Z,25.35
2018-06-08T12:51:17.233Z,25.64
2018-06-08T12:53:44.680Z,26.25
2018-06-08T12:56:12.514Z,26.52
2018-06-08T12:58:39.913Z,27.47
2018-06-08T13:01:07.423Z,27.68
2018-06-08T13:03:34.828Z,28.62
2018-06-08T13:06:02.278Z,27.93
2018-06-08T13:08:29.729Z,27.77
2018-06-08T13:10:57.145Z,27.24
2018-06-08T13:13:25.569Z,27.72
2018-06-08T13:15:53.036Z,27.83
2018-06-08T13:18:20.997Z,27.70
2018-06-08T13:20:48.446Z,26.98
2018-06-08T13:23:15.856Z,26.82
2018-06-08T13:25:43.270Z,26.42
2018-06-08T13:28:10.638Z,26.22
2018-06-08T13:30:48.381Z,26.01
2018-06-08T13:33:16.171Z,26.02
2018-06-08T13:35:43.696Z,25.96
2018-06-08T13:38:11.179Z,25.51
2018-06-08T13:40:43.993Z,25.86
2018-06-08T13:43:11.784Z,25.22
2018-06-08T13:45:39.309Z,25.54
2018-06-08T13:48:06.705Z,25.10
2018-06-08T13:50:34.145Z,24.96
2018-06-08T13:53:01.564Z,25.30
2018-06-08T13:55:28.948Z,25.54
2018-06-08T13:57:56.430Z,25.65
2018-06-08T14:00:24.794Z,25.59
2018-06-08T14:02:52.469Z,25.55
2018-06-08T14:05:20.178Z,26.39
2018-06-08T14:07:47.845Z,27.78
2018-06-08T14:10:15.468Z,28.85
2018-06-08T14:12:43.020Z,27.47
2018-06-08T14:15:10.501Z,28.17
2018-06-08T14:17:38.118Z,27.97
2018-06-08T14:20:06.717Z,29.08
2018-06-08T14:22:34.318Z,29.15
2018-06-08T14:25:01.741Z,29.31
2018-06-08T14:27:29.350Z,29.67
2018-06-08T14:29:56.859Z,28.89
2018-06-08T14:32:25.085Z,28.21
2018-06-08T14:34:52.615Z,27.48
2018-06-08T14:37:20.254Z,26.57
2018-06-08T14:39:47.957Z,25.77
2018-06-08T14:42:15.526Z,26.11
2018-06-08T14:44:43.057Z,25.83
2018-06-08T14:47:11.562Z,25.91
2018-06-08T14:49:39.310Z,26.80
2018-06-08T14:52:06.881Z,26.29
2018-06-08T14:54:34.725Z,26.67
2018-06-08T14:57:02.539Z,26.29
2018-06-08T14:59:30.045Z,27.06
2018-06-08T15:01:57.617Z,27.69
2018-06-08T15:04:25.496Z,27.61
2018-06-08T15:06:53.389Z,27.20
2018-06-08T15:09:21.038Z,25.93
2018-06-08T15:11:48.511Z,25.90
2018-06-08T15:14:16.173Z,25.67
2018-06-08T15:16:43.691Z,26.06
2018-06-08T15:19:11.301Z,26.18
2018-06-08T15:21:39.036Z,25.89
2018-06-08T15:24:06.828Z,25.77
2018-06-08T15:26:34.502Z,26.05
2018-06-08T15:29:02.118Z,26.10
2018-06-08T15:31:29.708Z,25.12
2018-06-08T15:33:57.270Z,26.02
2018-06-08T15:36:24.874Z,26.82
2018-06-08T15:38:52.442Z,26.10
2018-06-08T15:41:19.951Z,26.10
2018-06-08T15:43:48.164Z,25.64
2018-06-08T15:46:15.742Z,25.98
2018-06-08T15:48:43.446Z,26.07
2018-06-08T15:51:11.115Z,25.89
2018-06-08T15:53:38.777Z,25.84
2018-06-08T15:56:06.371Z,24.88
2018-06-08T15:58:34.032Z,25.14
2018-06-08T16:01:01.635Z,24.19
2018-06-08T16:03:29.438Z,24.17
2018-06-08T16:05:56.933Z,23.83
2018-06-08T16:08:25.180Z,23.52
2018-06-08T16:10:52.694Z,23.72
2018-06-08T16:13:20.134Z,24.10
2018-06-08T16:15:47.628Z,24.23
2018-06-08T16:18:15.118Z,24.00
2018-06-08T16:20:43.501Z,22.46
2018-06-08T16:23:11.085Z,22.07
2018-06-08T16:25:38.745Z,21.62
2018-06-08T16:28:06.213Z,22.17
2018-06-08T16:30:33.808Z,22.34
2018-06-08T16:33:01.476Z,21.95
2018-06-08T16:35:28.965Z,21.88
2018-06-08T16:37:57.779Z,21.41
2018-06-08T16:40:25.321Z,20.64
2018-06-08T16:42:52.812Z,20.81
2018-06-08T16:45:20.221Z,20.76
2018-06-08T16:47:47.721Z,20.28
2018-06-08T16:50:15.329Z,20.11
2018-06-08T16:52:43.004Z,19.66
2018-06-08T16:55:10.532Z,19.80
2018-06-08T16:57:38.113Z,19.66
2018-06-08T17:00:05.703Z,19.86
2018-06-08T17:02:33.253Z,19.63
2018-06-08T17:05:00.883Z,19.78
2018-06-08T17:07:28.579Z,19.44
2018-06-08T17:09:56.082Z,19.34
2018-06-08T17:12:23.632Z,19.49
2018-06-08T17:14:51.186Z,19.26
2018-06-08T17:17:18.643Z,19.30
2018-06-08T17:19:46.081Z,18.90
2018-06-08T17:22:13.541Z,18.97
2018-06-08T17:24:41.003Z,18.84
2018-06-08T17:27:08.556Z,19.06
2018-06-08T17:29:36.068Z,19.04
2018-06-08T17:32:03.461Z,18.95
2018-06-08T17:34:31.031Z,18.69
2018-06-08T17:36:58.534Z,18.59
2018-06-08T17:39:25.965Z,18.68
2018-06-08T17:41:53.451Z,18.82
2018-06-08T17:44:21.037Z,18.59
2018-06-08T17:46:48.592Z,18.54
2018-06-08T17:49:16.132Z,18.16
2018-06-08T17:51:44.152Z,18.34
2018-06-08T17:54:11.690Z,18.31
2018-06-08T17:56:39.370Z,18.63
2018-06-08T17:59:06.862Z,18.72
2018-06-08T18:01:34.261Z,18.50
2018-06-08T18:04:01.885Z,18.40
2018-06-08T18:06:29.496Z,18.66
2018-06-08T18:08:57.039Z,18.39
2018-06-08T18:11:24.477Z,18.27
2018-06-08T18:13:51.916Z,18.30
2018-06-08T18:16:19.560Z,18.17
2018-06-08T18:18:47.134Z,18.51
2018-06-08T18:21:14.649Z,18.60
2018-06-08T18:23:42.078Z,18.50
2018-06-08T18:26:09.615Z,18.27
2018-06-08T18:28:37.137Z,18.60
2018-06-08T18:31:05.299Z,18.61
2018-06-08T18:33:34.049Z,18.71
2018-06-08T18:36:01.634Z,18.28
2018-06-08T18:38:29.536Z,18.04
2018-06-08T18:40:57.113Z,18.03
2018-06-08T18:43:24.655Z,18.10
2018-06-08T18:45:52.222Z,18.33
2018-06-08T18:48:19.710Z,18.12
2018-06-08T18:50:47.894Z,18.07
2018-06-08T18:53:15.366Z,18.47
2018-06-08T18:55:43.855Z,18.39
2018-06-08T18:58:12.275Z,18.40
2018-06-08T19:00:39.807Z,18.35
2018-06-08T19:03:07.423Z,18.53
2018-06-08T19:05:34.962Z,18.29
2018-06-08T19:08:02.478Z,18.16
2018-06-08T19:10:30.768Z,18.40
2018-06-08T19:12:58.327Z,18.37
2018-06-08T19:15:25.981Z,18.25
2018-06-08T19:17:53.615Z,18.14
2018-06-08T19:20:21.985Z,18.11
2018-06-08T19:22:50.349Z,17.98
2018-06-08T19:25:17.967Z,18.06
2018-06-08T19:27:45.693Z,18.30
2018-06-08T19:30:13.821Z,18.49
2018-06-08T19:32:41.467Z,17.99
2018-06-08T19:35:09.074Z,18.02
2018-06-08T19:37:36.706Z,18.09
2018-06-08T19:40:04.404Z,18.11
2018-06-08T19:42:31.909Z,18.12
2018-06-08T19:44:59.519Z,18.33
2018-06-08T19:47:27.010Z,18.24
2018-06-08T19:49:54.557Z,18.10
2018-06-08T19:52:22.333Z,18.07
2018-06-08T19:54:50.132Z,18.04
2018-06-08T19:57:17.714Z,17.89
2018-06-08T19:59:45.370Z,17.94
2018-06-08T20:02:13.598Z,18.17
2018-06-08T20:04:41.126Z,18.17
2018-06-08T20:07:09.035Z,18.15
2018-06-08T20:09:37.041Z,17.88
2018-06-08T20:12:06.087Z,17.96
2018-06-08T20:14:33.806Z,17.80
2018-06-08T20:17:01.375Z,17.81
2018-06-08T20:19:29.532Z,17.96
2018-06-08T20:21:58.575Z,18.00
2018-06-08T20:24:26.234Z,17.91
2018-06-08T20:26:53.910Z,17.96
2018-06-08T20:29:21.550Z,17.80
2018-06-08T20:31:49.189Z,17.82
2018-06-08T20:34:16.806Z,17.98
2018-06-08T20:36:44.366Z,17.79
2018-06-08T20:39:11.975Z,17.73
2018-06-08T20:41:39.487Z,17.70
2018-06-08T20:44:06.935Z,17.82
2018-06-08T20:46:35.268Z,17.96
2018-06-08T20:49:03.099Z,18.00
2018-06-08T20:51:30.549Z,17.89
2018-06-08T20:53:58.163Z,17.89
2018-06-08T20:56:25.715Z,17.89
2018-06-08T20:58:53.429Z,17.97
2018-06-08T21:01:20.905Z,17.86
2018-06-08T21:03:48.308Z,17.87
2018-06-08T21:06:15.777Z,17.91
2018-06-08T21:08:43.522Z,18.01
2018-06-08T21:11:11.045Z,18.21
2018-06-08T21:13:38.570Z,18.16
2018-06-08T21:16:06.660Z,18.01
2018-06-08T21:18:34.177Z,17.99
2018-06-08T21:21:02.771Z,17.93
2018-06-08T21:23:30.207Z,17.91
2018-06-08T21:25:57.637Z,17.86
2018-06-08T21:28:25.026Z,17.88
2018-06-08T21:30:52.507Z,17.92
2018-06-08T21:33:19.962Z,17.87
2018-06-08T21:35:47.432Z,17.90
2018-06-08T21:38:14.892Z,17.83
2018-06-08T21:40:42.393Z,17.92
2018-06-08T21:43:09.837Z,17.88
2018-06-08T21:45:37.427Z,17.94
2018-06-08T21:48:04.927Z,17.93
2018-06-08T21:50:33.147Z,17.91
2018-06-08T21:53:01.181Z,17.96
2018-06-08T21:55:29.217Z,17.92
2018-06-08T21:57:56.631Z,18.05
2018-06-08T22:00:24.274Z,18.18
2018-06-08T22:02:51.731Z,17.95
2018-06-08T22:05:19.244Z,17.95
2018-06-08T22:07:46.726Z,17.97
2018-06-08T22:10:14.273Z,18.09
2018-06-08T22:12:41.767Z,18.07
2018-06-08T22:15:09.240Z,18.01
2018-06-08T22:17:36.722Z,17.84
2018-06-08T22:20:05.116Z,18.03
2018-06-08T22:22:32.620Z,17.98
2018-06-08T22:25:00.081Z,18.10
2018-06-08T22:27:27.571Z,17.97
2018-06-08T22:29:55.131Z,18.06
2018-06-08T22:32:23.272Z,17.94
2018-06-08T22:34:50.854Z,17.80
2018-06-08T22:37:18.861Z,17.90
2018-06-08T22:39:46.259Z,18.04
2018-06-08T22:42:13.687Z,17.86
2018-06-08T22:44:41.094Z,17.87
2018-06-08T22:47:08.587Z,17.97
2018-06-08T22:49:35.986Z,17.88
2018-06-08T22:52:03.455Z,17.84
2018-06-08T22:54:30.903Z,17.97
2018-06-08T22:56:58.299Z,18.04
2018-06-08T22:59:25.833Z,18.02
2018-06-08T23:01:53.489Z,17.97
2018-06-08T23:04:20.940Z,17.95
2018-06-08T23:06:49.041Z,17.89
2018-06-08T23:09:16.565Z,17.82
2018-06-08T23:11:44.076Z,17.84
2018-06-08T23:14:11.476Z,17.86
2018-06-08T23:16:39.088Z,17.91
2018-06-08T23:19:06.594Z,18.01
2018-06-08T23:21:34.053Z,18.02
2018-06-08T23:24:01.462Z,17.90
2018-06-08T23:26:29.013Z,17.80
2018-06-08T23:28:56.418Z,17.74
2018-06-08T23:31:23.911Z,17.86
2018-06-08T23:33:51.521Z,17.90
2018-06-08T23:36:19.258Z,17.76
2018-06-08T23:38:46.812Z,17.63
2018-06-08T23:41:14.294Z,17.64
2018-06-08T23:43:41.712Z,17.61
2018-06-08T23:46:09.239Z,17.75
2018-06-08T23:48:36.781Z,17.72
2018-06-08T23:51:04.266Z,17.58
2018-06-08T23:53:31.645Z,17.73
2018-06-08T23:55:59.505Z,17.65
2018-06-08T23:58:27.547Z,17.83
